Anglian Lady — VOLP — position and weather

sailwx.info

Track history (hours):
 
Tides and Currents Weather Stations Pressure Air Temp Water Temp Dewpoint Dewpoint Depression Visibility Wind Speed Wind Dir Waves Ship Positions

Anglian Lady

Last reported at 2014-Dec-18 16:15 UTC. Time now 2014-Dec-20 16:32 UTC.
Position N 45°06' W 085°53'.

Length 32 m.

Type: Tug. MMSI: 316002238.

Date/timePositionNaut miles runAvg speedWind from/ knotsBaromVisibWave heightAir tempDewpointWater temp
2014-Dec-18 16:15N 45°06' W 085°53'6 7.7
2014-Dec-18 15:32N 45°11' W 085°49'8 7.7
2014-Dec-18 14:33N 45°17' W 085°43'8 7.9
2014-Dec-18 13:33N 45°23' W 085°36'8 7.8
2014-Dec-18 12:33N 45°29' W 085°29'8 7.9
2014-Dec-18 11:33N 45°35' W 085°22'8 7.8
2014-Dec-18 10:33N 45°42' W 085°16'7 7.3
2014-Dec-18 09:33N 45°47' W 085°09'6 6.3
2014-Dec-18 08:33N 45°50' W 085°01'8 7.9
2014-Dec-18 07:33N 45°49' W 084°49'8 7.9
2014-Dec-18 06:33N 45°50' W 084°38'8 7.7
2014-Dec-18 05:33N 45°52' W 084°27'  
2014-Dec-12 00:07N 45°36' W 083°31'7 7.0
2014-Dec-11 23:07N 45°42' W 083°37'38 5.8
2014-Dec-11 16:30N 46°13' W 084°09'14 6.0
2014-Dec-11 14:08N 46°26' W 084°16'4 4.9
2014-Dec-11 13:23N 46°30' W 084°18'  
Track history (hours):
 
Tides and Currents Weather Stations Pressure Air Temp Water Temp Dewpoint Dewpoint Depression Visibility Wind Speed Wind Dir Waves Ship Positions

Anglian Lady

Last reported at 2014-Dec-18 16:15 UTC. Time now 2014-Dec-20 16:32 UTC.
Position N 45°06' W 085°53'.

Length 32 m.

Type: Tug. MMSI: 316002238.

Date/timePositionNaut miles runAvg speedWind from/ knotsBaromVisibWave heightAir tempDewpointWater temp
2014-Dec-18 16:15N 45°06' W 085°53'6 7.7
2014-Dec-18 15:32N 45°11' W 085°49'8 7.7
2014-Dec-18 14:33N 45°17' W 085°43'8 7.9
2014-Dec-18 13:33N 45°23' W 085°36'8 7.8
2014-Dec-18 12:33N 45°29' W 085°29'8 7.9
2014-Dec-18 11:33N 45°35' W 085°22'8 7.8
2014-Dec-18 10:33N 45°42' W 085°16'7 7.3
2014-Dec-18 09:33N 45°47' W 085°09'6 6.3
2014-Dec-18 08:33N 45°50' W 085°01'8 7.9
2014-Dec-18 07:33N 45°49' W 084°49'8 7.9
2014-Dec-18 06:33N 45°50' W 084°38'8 7.7
2014-Dec-18 05:33N 45°52' W 084°27'  
2014-Dec-12 00:07N 45°36' W 083°31'7 7.0
2014-Dec-11 23:07N 45°42' W 083°37'38 5.8
2014-Dec-11 16:30N 46°13' W 084°09'14 6.0
2014-Dec-11 14:08N 46°26' W 084°16'4 4.9
2014-Dec-11 13:23N 46°30' W 084°18'  

Dump ship's entire track history